Time;durP1;ratioP1;P1;durP2;ratioP2;P2;SDS_P1;SDS_P2;PMS_P1;PMS_P2;Temp;Humidity;BMP_temperature;BMP_pressure;BME280_temperature;BME280_humidity;BME280_pressure;Samples;Min_cycle;Max_cycle;Signal;HPM_P1;HPM_P2
2020/12/30 00:00:30;;;;;;;1.85;1.70;;;9.50;81.90;;;;;;5100601;28;20048;-43
2020/12/30 00:02:56;;;;;;;1.90;1.70;;;9.50;81.90;;;;;;5094687;28;20557;-43
2020/12/30 00:05:22;;;;;;;2.53;1.98;;;9.50;82.60;;;;;;5092779;28;20055;-42
2020/12/30 00:07:48;;;;;;;2.30;1.77;;;9.50;81.90;;;;;;5092816;28;20044;-42
2020/12/30 00:10:19;;;;;;;2.33;1.98;;;9.50;81.90;;;;;;5092555;28;20139;-43
2020/12/30 00:12:45;;;;;;;1.95;1.50;;;9.50;81.90;;;;;;5103052;28;20043;-42
2020/12/30 00:15:11;;;;;;;2.42;1.95;;;9.50;81.90;;;;;;5112760;28;20445;-43
2020/12/30 00:17:43;;;;;;;1.98;1.75;;;9.50;81.90;;;;;;5112980;28;20047;-43
2020/12/30 00:20:12;;;;;;;1.88;1.67;;;9.50;81.90;;;;;;5105332;28;20043;-43
2020/12/30 00:22:38;;;;;;;2.35;1.90;;;9.50;81.90;;;;;;5095778;28;20044;-45
2020/12/30 00:25:06;;;;;;;2.17;1.67;;;9.50;81.90;;;;;;5096364;28;20066;-44
2020/12/30 00:27:32;;;;;;;2.42;1.92;;;9.50;81.90;;;;;;5113142;28;20075;-47
2020/12/30 00:29:58;;;;;;;1.80;1.63;;;9.50;82.00;;;;;;5112942;28;20044;-46
2020/12/30 00:32:24;;;;;;;2.55;1.92;;;9.50;81.90;;;;;;5096241;28;20123;-45
2020/12/30 00:34:50;;;;;;;1.85;1.70;;;9.50;81.90;;;;;;5097501;28;20189;-46
2020/12/30 00:37:15;;;;;;;2.03;1.67;;;9.50;81.90;;;;;;5095982;28;20071;-44
2020/12/30 00:39:41;;;;;;;2.00;1.80;;;9.50;81.90;;;;;;5104984;28;20040;-44
2020/12/30 00:42:07;;;;;;;2.35;1.50;;;9.50;81.90;;;;;;5096279;28;20051;-46
2020/12/30 00:44:33;;;;;;;1.73;1.63;;;9.50;81.90;;;;;;5095873;28;20101;-46
2020/12/30 00:46:59;;;;;;;2.75;1.58;;;9.50;81.90;;;;;;5095906;28;20097;-45
2020/12/30 00:49:26;;;;;;;1.80;1.52;;;9.50;81.90;;;;;;5106034;28;20051;-45
2020/12/30 00:51:52;;;;;;;2.03;1.55;;;9.50;81.90;;;;;;5095931;28;20446;-47
2020/12/30 00:54:18;;;;;;;1.85;1.50;;;9.50;81.90;;;;;;5096616;28;20048;-43
2020/12/30 00:56:46;;;;;;;2.35;1.88;;;9.50;81.90;;;;;;5095778;28;20160;-40
2020/12/30 00:59:12;;;;;;;2.10;1.70;;;9.50;81.90;;;;;;5095867;28;20075;-43
2020/12/30 01:01:38;;;;;;;1.98;1.70;;;9.50;81.90;;;;;;5112824;28;20071;-43
2020/12/30 01:04:03;;;;;;;1.65;1.50;;;9.50;81.90;;;;;;5114022;28;20054;-42
2020/12/30 01:06:30;;;;;;;1.60;1.48;;;9.50;81.90;;;;;;5098516;28;20044;-43
2020/12/30 01:08:55;;;;;;;2.03;1.35;;;9.50;82.00;;;;;;5095706;28;20114;-42
2020/12/30 01:11:28;;;;;;;1.70;1.50;;;9.50;82.00;;;;;;5100818;28;20075;-42
2020/12/30 01:13:56;;;;;;;2.00;1.50;;;9.50;81.90;;;;;;5116033;28;20052;-42
2020/12/30 01:16:21;;;;;;;2.00;1.52;;;9.50;81.90;;;;;;5114074;28;20048;-42
2020/12/30 01:18:50;;;;;;;1.80;1.45;;;9.50;81.90;;;;;;5115921;28;20047;-42
2020/12/30 01:21:16;;;;;;;1.52;1.40;;;9.50;81.90;;;;;;5098952;28;20051;-42
2020/12/30 01:23:43;;;;;;;1.45;1.35;;;9.50;82.60;;;;;;5095288;28;20055;-44
2020/12/30 01:26:10;;;;;;;1.30;1.20;;;9.50;82.00;;;;;;5096032;28;20048;-44
2020/12/30 01:28:36;;;;;;;1.55;1.38;;;9.50;81.90;;;;;;5095292;28;20071;-43
2020/12/30 01:31:03;;;;;;;1.85;1.50;;;9.50;81.90;;;;;;5104980;28;20481;-45
2020/12/30 01:33:29;;;;;;;2.00;1.60;;;9.50;82.00;;;;;;5114562;28;20047;-43
2020/12/30 01:35:54;;;;;;;1.75;1.35;;;9.50;81.90;;;;;;5115478;28;20043;-44
2020/12/30 01:38:20;;;;;;;2.38;1.63;;;9.50;81.90;;;;;;5113872;28;20048;-43
2020/12/30 01:40:46;;;;;;;1.48;1.38;;;9.50;81.90;;;;;;5105933;28;20111;-47
2020/12/30 01:43:13;;;;;;;1.90;1.40;;;9.50;81.90;;;;;;5107408;28;20182;-47
2020/12/30 01:45:40;;;;;;;1.90;1.50;;;9.50;82.00;;;;;;5095770;28;20048;-43
2020/12/30 01:48:17;;;;;;;1.50;1.40;;;9.50;81.90;;;;;;5113465;28;20047;-46
2020/12/30 01:50:44;;;;;;;1.40;1.30;;;9.50;81.90;;;;;;5115336;28;20051;-44
2020/12/30 01:53:09;;;;;;;1.40;1.30;;;9.50;81.90;;;;;;5111112;28;20056;-42
2020/12/30 01:55:40;;;;;;;1.63;1.40;;;9.50;82.00;;;;;;5106292;28;20051;-43
2020/12/30 01:58:09;;;;;;;1.40;1.25;;;9.50;82.00;;;;;;5114736;28;20047;-44
2020/12/30 02:00:36;;;;;;;1.58;1.40;;;9.50;81.90;;;;;;5114912;27;20039;-46
2020/12/30 02:03:04;;;;;;;1.60;1.50;;;9.50;81.90;;;;;;5112406;28;20051;-42
2020/12/30 02:05:31;;;;;;;1.85;1.63;;;9.50;81.90;;;;;;5094617;28;20135;-46
2020/12/30 02:07:59;;;;;;;1.88;1.40;;;9.50;81.90;;;;;;5094393;28;20052;-42
2020/12/30 02:10:26;;;;;;;1.52;1.25;;;9.50;82.60;;;;;;5104736;28;20051;-45
2020/12/30 02:12:53;;;;;;;1.65;1.42;;;9.50;81.90;;;;;;5114580;28;20040;-45
2020/12/30 02:15:26;;;;;;;1.52;1.42;;;9.50;81.90;;;;;;5114130;28;20044;-41
2020/12/30 02:17:52;;;;;;;1.77;1.50;;;9.50;82.00;;;;;;5100632;28;20109;-44
2020/12/30 02:20:18;;;;;;;1.77;1.30;;;9.50;81.90;;;;;;5104069;28;20491;-42
2020/12/30 02:22:54;;;;;;;1.63;1.50;;;9.50;81.90;;;;;;5114630;28;20046;-46
2020/12/30 02:25:20;;;;;;;1.83;1.55;;;9.50;82.00;;;;;;5114070;28;20059;-45
2020/12/30 02:27:46;;;;;;;2.20;1.55;;;9.50;81.90;;;;;;5101004;28;20479;-44
2020/12/30 02:30:13;;;;;;;1.77;1.42;;;9.50;81.90;;;;;;5095025;28;20049;-46
2020/12/30 02:32:39;;;;;;;1.80;1.60;;;9.50;82.00;;;;;;5094060;28;20051;-45
2020/12/30 02:35:05;;;;;;;1.75;1.40;;;9.50;81.90;;;;;;5097548;28;20048;-43
2020/12/30 02:37:30;;;;;;;2.20;1.83;;;9.50;81.90;;;;;;5103756;28;20044;-45
2020/12/30 02:39:56;;;;;;;2.50;1.80;;;9.50;81.90;;;;;;5113074;28;20080;-46
2020/12/30 02:42:21;;;;;;;1.65;1.40;;;9.50;81.90;;;;;;5112288;28;20100;-43
2020/12/30 02:44:51;;;;;;;1.65;1.27;;;9.50;82.00;;;;;;5108333;28;20052;-42
2020/12/30 02:47:17;;;;;;;1.77;1.60;;;9.50;82.00;;;;;;5095037;28;20048;-43
2020/12/30 02:49:43;;;;;;;1.38;1.27;;;9.50;81.90;;;;;;5093857;28;20053;-43
2020/12/30 02:52:08;;;;;;;2.08;1.60;;;9.50;81.90;;;;;;5094694;28;20403;-44
2020/12/30 02:54:34;;;;;;;2.10;1.65;;;9.50;81.90;;;;;;5112479;28;20499;-43
2020/12/30 02:56:59;;;;;;;2.10;1.90;;;9.50;81.90;;;;;;5113508;28;20051;-43
2020/12/30 02:59:25;;;;;;;1.88;1.60;;;9.50;81.90;;;;;;5111581;28;20050;-41
2020/12/30 03:01:51;;;;;;;1.77;1.30;;;9.50;81.90;;;;;;5093529;28;20052;-43
2020/12/30 03:04:16;;;;;;;1.75;1.48;;;9.50;81.90;;;;;;5093503;28;20052;-42
2020/12/30 03:06:42;;;;;;;2.22;1.67;;;9.50;81.90;;;;;;5113613;28;20052;-43
2020/12/30 03:09:08;;;;;;;2.15;1.70;;;9.50;81.90;;;;;;5113806;28;20051;-43
2020/12/30 03:11:34;;;;;;;2.33;1.90;;;9.50;82.00;;;;;;5095508;28;20048;-43
2020/12/30 03:13:59;;;;;;;1.80;1.60;;;9.50;81.90;;;;;;5092972;28;20048;-43
2020/12/30 03:16:25;;;;;;;2.65;1.70;;;9.50;81.90;;;;;;5109003;28;20077;-42
2020/12/30 03:18:50;;;;;;;1.83;1.60;;;9.50;81.90;;;;;;5093226;28;20044;-41
2020/12/30 03:21:16;;;;;;;2.72;2.10;;;9.50;81.90;;;;;;5108082;28;20143;-42
2020/12/30 03:23:42;;;;;;;2.10;1.80;;;9.50;82.00;;;;;;5113037;28;20051;-43
2020/12/30 03:26:07;;;;;;;2.13;1.63;;;9.50;82.00;;;;;;5100742;28;20050;-43
2020/12/30 03:28:33;;;;;;;2.95;1.77;;;9.50;81.90;;;;;;5113460;28;20055;-41
2020/12/30 03:30:59;;;;;;;2.05;1.83;;;9.40;81.90;;;;;;5102603;28;20044;-42
2020/12/30 03:33:24;;;;;;;2.08;1.83;;;9.50;81.90;;;;;;5095051;28;20127;-43
2020/12/30 03:35:50;;;;;;;2.40;1.88;;;9.50;81.90;;;;;;5093216;28;20408;-44
2020/12/30 03:38:15;;;;;;;2.25;1.67;;;9.50;82.00;;;;;;5093253;28;20048;-43
2020/12/30 03:40:41;;;;;;;2.30;1.95;;;9.50;82.00;;;;;;5113389;28;20071;-45
2020/12/30 03:43:07;;;;;;;2.42;1.90;;;9.50;81.90;;;;;;5111592;28;20055;-42
2020/12/30 03:45:32;;;;;;;2.90;1.77;;;9.50;82.00;;;;;;5102094;28;20051;-44
2020/12/30 03:47:58;;;;;;;2.88;1.95;;;9.50;82.00;;;;;;5092748;28;20044;-43
2020/12/30 03:50:24;;;;;;;2.78;2.03;;;9.50;82.00;;;;;;5101582;28;20047;-42
2020/12/30 03:52:50;;;;;;;2.58;1.85;;;9.50;81.90;;;;;;5111214;28;20040;-42
2020/12/30 03:55:15;;;;;;;2.78;2.22;;;9.50;82.00;;;;;;5113631;28;20491;-42
2020/12/30 03:57:41;;;;;;;2.83;2.00;;;9.50;82.00;;;;;;5116989;28;20131;-42
2020/12/30 04:00:06;;;;;;;2.30;1.85;;;9.50;81.90;;;;;;5117136;28;20048;-43
2020/12/30 04:02:32;;;;;;;2.35;1.90;;;9.50;82.00;;;;;;5116032;28;20043;-44
2020/12/30 04:04:58;;;;;;;2.63;1.92;;;9.50;82.00;;;;;;5110526;28;20040;-42
2020/12/30 04:07:23;;;;;;;2.00;1.80;;;9.50;82.00;;;;;;5096858;28;20044;-41
2020/12/30 04:09:50;;;;;;;2.95;2.08;;;9.50;82.00;;;;;;5096645;28;20040;-41
2020/12/30 04:12:15;;;;;;;2.67;2.20;;;9.50;82.00;;;;;;5096608;28;20056;-42
2020/12/30 04:14:41;;;;;;;2.08;1.85;;;9.50;81.90;;;;;;5097779;28;20079;-42
2020/12/30 04:17:07;;;;;;;2.63;1.92;;;9.50;81.90;;;;;;5096236;28;20051;-43
2020/12/30 04:19:32;;;;;;;3.03;2.08;;;9.50;81.90;;;;;;5107048;28;20085;-42
2020/12/30 04:21:58;;;;;;;2.67;2.25;;;9.50;81.90;;;;;;5116956;28;20048;-43
2020/12/30 04:24:24;;;;;;;2.83;2.03;;;9.50;82.00;;;;;;5115053;28;20051;-46
2020/12/30 04:26:49;;;;;;;3.33;2.30;;;9.50;81.90;;;;;;5107120;28;20113;-43
2020/12/30 04:29:15;;;;;;;2.97;2.28;;;9.50;82.00;;;;;;5096853;28;20048;-42
2020/12/30 04:31:41;;;;;;;2.75;2.05;;;9.40;81.90;;;;;;5112376;28;20052;-45
2020/12/30 04:34:06;;;;;;;2.50;2.30;;;9.50;81.90;;;;;;5114679;28;20039;-49
2020/12/30 04:36:33;;;;;;;3.03;2.47;;;9.50;81.90;;;;;;5115128;28;20044;-47
2020/12/30 04:38:58;;;;;;;2.33;1.83;;;9.50;82.00;;;;;;5116826;28;20050;-47
2020/12/30 04:41:31;;;;;;;3.20;2.38;;;9.50;81.90;;;;;;5116335;28;20047;-43
2020/12/30 04:43:58;;;;;;;2.92;2.03;;;9.50;81.90;;;;;;5116440;28;20484;-46
2020/12/30 04:46:25;;;;;;;3.05;2.45;;;9.40;81.90;;;;;;5099146;27;20135;-45
2020/12/30 04:48:51;;;;;;;3.20;2.33;;;9.40;82.00;;;;;;5095617;28;20483;-41
2020/12/30 04:51:18;;;;;;;2.85;2.17;;;9.50;81.90;;;;;;5115486;28;20048;-44
2020/12/30 04:53:45;;;;;;;2.88;2.33;;;9.50;81.90;;;;;;5116473;28;20438;-46
2020/12/30 04:56:15;;;;;;;3.78;2.38;;;9.50;81.90;;;;;;5098458;28;20048;-46
2020/12/30 04:58:42;;;;;;;3.28;2.47;;;9.40;81.90;;;;;;5095903;28;20131;-47
2020/12/30 05:01:11;;;;;;;2.92;2.47;;;9.50;82.00;;;;;;5095735;28;20052;-43
2020/12/30 05:03:45;;;;;;;3.30;2.40;;;9.50;81.90;;;;;;5095459;28;20062;-47
2020/12/30 05:06:13;;;;;;;3.75;2.40;;;9.50;82.00;;;;;;5095775;28;20079;-41
2020/12/30 05:08:40;;;;;;;2.15;1.90;;;9.40;81.90;;;;;;5113975;28;20487;-43
2020/12/30 05:11:06;;;;;;;2.70;2.00;;;9.50;82.00;;;;;;5100266;28;20051;-41
2020/12/30 05:13:32;;;;;;;2.60;2.20;;;9.50;82.00;;;;;;5095676;28;20052;-47
2020/12/30 05:15:58;;;;;;;3.60;2.42;;;9.50;82.00;;;;;;5109418;28;20044;-46
2020/12/30 05:18:24;;;;;;;2.80;2.30;;;9.50;82.00;;;;;;5113698;28;20051;-44
2020/12/30 05:20:50;;;;;;;3.03;2.15;;;9.50;81.90;;;;;;5102465;28;20105;-44
2020/12/30 05:23:15;;;;;;;2.88;1.90;;;9.50;82.00;;;;;;5112459;28;20055;-42
2020/12/30 05:25:42;;;;;;;2.60;2.00;;;9.50;82.00;;;;;;5111002;28;20519;-45
2020/12/30 05:28:13;;;;;;;2.85;2.42;;;9.40;81.90;;;;;;5096440;28;20055;-44
2020/12/30 05:30:43;;;;;;;3.42;2.20;;;9.50;81.90;;;;;;5094983;28;20098;-44
2020/12/30 05:33:09;;;;;;;3.10;2.28;;;9.50;81.90;;;;;;5098866;28;20097;-44
2020/12/30 05:35:35;;;;;;;3.20;2.20;;;9.50;81.90;;;;;;5104429;28;20050;-43
2020/12/30 05:38:01;;;;;;;2.90;2.15;;;9.40;81.90;;;;;;5095207;28;20048;-41
2020/12/30 05:40:29;;;;;;;3.42;2.30;;;9.50;82.00;;;;;;5096168;28;20048;-47
2020/12/30 05:43:08;;;;;;;3.00;2.15;;;9.50;81.90;;;;;;5096924;28;20044;-44
2020/12/30 05:45:46;;;;;;;3.17;2.47;;;9.50;81.90;;;;;;5115032;28;20112;-41
2020/12/30 05:48:13;;;;;;;3.45;2.30;;;9.50;82.00;;;;;;5096624;28;20100;-43
2020/12/30 05:50:50;;;;;;;3.08;2.35;;;9.50;81.90;;;;;;5095634;28;20089;-43
2020/12/30 05:53:16;;;;;;;2.90;2.15;;;9.50;81.90;;;;;;5094831;28;20060;-43
2020/12/30 05:55:42;;;;;;;3.20;2.30;;;9.40;81.90;;;;;;5106120;28;20040;-43
2020/12/30 05:58:13;;;;;;;3.20;2.30;;;9.50;81.90;;;;;;5114818;28;20051;-44
2020/12/30 06:00:39;;;;;;;4.47;2.63;;;9.50;81.90;;;;;;5113540;28;20059;-43
2020/12/30 06:03:05;;;;;;;2.78;2.20;;;9.50;82.60;;;;;;5105514;28;20048;-42
2020/12/30 06:05:30;;;;;;;2.88;2.13;;;9.50;82.00;;;;;;5094407;28;20181;-43
2020/12/30 06:07:56;;;;;;;2.67;2.13;;;9.40;81.90;;;;;;5093089;28;20503;-44
2020/12/30 06:10:25;;;;;;;2.55;2.28;;;9.50;82.00;;;;;;5101735;28;20142;-42
2020/12/30 06:12:52;;;;;;;3.20;2.60;;;9.50;82.00;;;;;;5114639;28;20487;-42
2020/12/30 06:15:22;;;;;;;3.00;2.20;;;9.50;81.90;;;;;;5110318;28;20048;-42
2020/12/30 06:17:58;;;;;;;3.13;2.45;;;9.50;81.90;;;;;;5094444;28;20044;-42
2020/12/30 06:20:50;;;;;;;3.17;2.38;;;9.50;81.90;;;;;;5113698;28;20043;-43
2020/12/30 06:23:16;;;;;;;2.75;2.13;;;9.50;81.90;;;;;;5106358;28;20074;-44
2020/12/30 06:25:43;;;;;;;3.28;2.30;;;9.50;81.90;;;;;;5102948;28;20453;-43
2020/12/30 06:28:12;;;;;;;2.67;2.00;;;9.50;81.90;;;;;;5093933;28;20563;-42
2020/12/30 06:30:39;;;;;;;3.33;2.63;;;9.50;81.90;;;;;;5104392;28;20423;-42
2020/12/30 06:33:06;;;;;;;2.60;2.00;;;9.50;81.90;;;;;;5111539;27;20448;-41
2020/12/30 06:35:33;;;;;;;2.75;2.08;;;9.40;81.90;;;;;;5113711;28;20069;-42
2020/12/30 06:38:16;;;;;;;2.13;1.70;;;9.50;81.90;;;;;;5113852;28;20050;-39
2020/12/30 06:41:00;;;;;;;2.42;1.98;;;9.50;81.90;;;;;;5093796;28;20128;-44
2020/12/30 06:43:50;;;;;;;3.00;1.92;;;9.50;81.90;;;;;;5094813;28;20567;-45
2020/12/30 06:46:34;;;;;;;3.42;2.30;;;9.50;81.90;;;;;;5110158;28;20085;-44
2020/12/30 06:49:03;;;;;;;2.58;2.05;;;9.40;81.90;;;;;;5113879;28;20052;-42
2020/12/30 06:51:38;;;;;;;3.20;2.17;;;9.40;81.90;;;;;;5093507;28;20101;-45
2020/12/30 06:54:05;;;;;;;3.33;2.63;;;9.50;81.90;;;;;;5094772;28;20051;-43
2020/12/30 06:56:44;;;;;;;2.45;2.03;;;9.40;81.90;;;;;;5093327;28;20498;-42
2020/12/30 06:59:36;;;;;;;2.80;2.22;;;9.50;81.90;;;;;;5093830;28;20450;-43
2020/12/30 07:02:04;;;;;;;2.90;2.10;;;9.50;82.00;;;;;;5101887;28;20039;-44
2020/12/30 07:04:31;;;;;;;2.95;2.13;;;9.40;81.90;;;;;;5096123;28;20056;-43
2020/12/30 07:06:58;;;;;;;2.15;1.92;;;9.50;81.90;;;;;;5113380;28;20498;-42
2020/12/30 07:09:34;;;;;;;3.10;2.67;;;9.50;81.90;;;;;;5112317;28;20138;-42
2020/12/30 07:12:06;;;;;;;2.83;2.05;;;9.50;81.90;;;;;;5093301;28;20480;-42
2020/12/30 07:14:34;;;;;;;3.28;2.47;;;9.50;81.90;;;;;;5094442;28;20411;-42
2020/12/30 07:17:02;;;;;;;2.83;2.30;;;9.40;81.90;;;;;;5093283;28;20450;-44
2020/12/30 07:19:36;;;;;;;2.50;2.20;;;9.50;82.00;;;;;;5102862;28;20090;-42
2020/12/30 07:22:08;;;;;;;2.50;2.03;;;9.50;82.00;;;;;;5098294;28;20048;-42
2020/12/30 07:24:44;;;;;;;3.08;2.33;;;9.40;81.90;;;;;;5094158;28;20158;-42
2020/12/30 07:27:15;;;;;;;2.90;2.20;;;9.50;81.90;;;;;;5094390;28;20047;-44
2020/12/30 07:29:42;;;;;;;3.00;2.45;;;9.50;81.90;;;;;;5094343;28;20052;-43
2020/12/30 07:32:09;;;;;;;3.10;2.38;;;9.40;81.90;;;;;;5111602;28;20054;-42
2020/12/30 07:34:41;;;;;;;3.78;2.50;;;9.50;81.90;;;;;;5105703;28;20190;-43
2020/12/30 07:37:07;;;;;;;3.17;2.10;;;9.40;82.50;;;;;;5112964;28;20044;-44
2020/12/30 07:39:38;;;;;;;3.65;2.65;;;9.50;81.90;;;;;;5113071;28;20056;-42
2020/12/30 07:42:05;;;;;;;3.03;2.40;;;9.50;81.90;;;;;;5112672;28;20071;-42
2020/12/30 07:44:31;;;;;;;3.42;2.28;;;9.50;81.90;;;;;;5112438;28;20044;-42
2020/12/30 07:47:05;;;;;;;2.80;2.15;;;9.50;81.90;;;;;;5112493;28;20047;-41
2020/12/30 07:49:32;;;;;;;2.45;2.08;;;9.50;81.90;;;;;;5113220;28;20051;-42
2020/12/30 07:52:03;;;;;;;3.13;2.10;;;9.50;81.90;;;;;;5113264;28;20040;-43
2020/12/30 07:54:29;;;;;;;2.78;2.15;;;9.50;81.90;;;;;;5113182;28;20055;-43
2020/12/30 07:57:08;;;;;;;2.80;2.03;;;9.40;81.80;;;;;;5113311;28;20056;-43
2020/12/30 07:59:35;;;;;;;2.90;2.20;;;9.50;81.90;;;;;;5099384;28;20416;-44
2020/12/30 08:02:05;;;;;;;10.43;6.55;;;9.40;81.90;;;;;;5092711;28;20090;-41
2020/12/30 08:04:35;;;;;;;10.73;6.68;;;9.50;81.30;;;;;;5092539;28;20106;-46
2020/12/30 08:07:05;;;;;;;9.45;6.13;;;9.10;80.40;;;;;;5093830;28;20040;-44
2020/12/30 08:09:32;;;;;;;9.65;5.70;;;9.00;80.90;;;;;;5092350;28;20518;-44
2020/12/30 08:12:03;;;;;;;9.40;5.70;;;9.00;81.10;;;;;;5092734;28;20071;-48
2020/12/30 08:14:30;;;;;;;7.95;5.75;;;9.00;81.20;;;;;;5092566;28;20048;-44
2020/12/30 08:17:11;;;;;;;8.88;6.75;;;9.00;81.10;;;;;;5093787;28;20392;-53
2020/12/30 08:19:42;;;;;;;9.90;6.78;;;9.00;81.20;;;;;;5092672;28;20139;-49
2020/12/30 08:22:12;;;;;;;10.23;7.28;;;9.00;81.20;;;;;;5092507;28;20047;-47
2020/12/30 08:24:50;;;;;;;7.38;5.82;;;9.10;81.30;;;;;;5092058;28;20076;-46
2020/12/30 08:27:18;;;;;;;9.02;6.20;;;9.10;81.30;;;;;;5093460;28;20072;-50
2020/12/30 08:29:45;;;;;;;6.90;5.82;;;9.10;81.30;;;;;;5092702;28;20048;-46
2020/12/30 08:32:39;;;;;;;8.18;5.95;;;9.10;81.30;;;;;;5092629;28;20094;-50
2020/12/30 08:35:11;;;;;;;8.10;6.00;;;9.20;81.40;;;;;;5092593;28;20048;-48
2020/12/30 08:37:42;;;;;;;8.52;6.68;;;9.20;81.40;;;;;;5093469;28;20557;-44
2020/12/30 08:40:24;;;;;;;8.52;6.28;;;9.20;81.50;;;;;;5092114;28;20488;-44
2020/12/30 08:42:53;;;;;;;8.75;5.68;;;9.20;81.40;;;;;;5103678;28;20604;-51
2020/12/30 08:45:29;;;;;;;8.73;5.82;;;9.20;81.50;;;;;;5116515;28;20411;-49
2020/12/30 08:47:56;;;;;;;8.10;5.93;;;9.20;81.50;;;;;;5116042;28;20047;-51
2020/12/30 08:50:24;;;;;;;9.90;6.30;;;9.20;81.50;;;;;;5115076;28;20047;-49
2020/12/30 08:52:51;;;;;;;10.05;6.15;;;9.20;81.50;;;;;;5116511;28;20078;-44
2020/12/30 08:55:17;;;;;;;8.40;5.97;;;9.20;81.50;;;;;;5116260;28;20053;-46
2020/12/30 08:57:44;;;;;;;8.40;6.15;;;9.30;81.60;;;;;;5116307;28;20040;-52
2020/12/30 09:00:15;;;;;;;7.75;5.68;;;9.30;81.60;;;;;;5114560;28;20047;-47
2020/12/30 09:02:41;;;;;;;7.75;5.47;;;9.30;81.60;;;;;;5116107;28;20072;-46
2020/12/30 09:05:07;;;;;;;9.68;6.35;;;9.30;81.60;;;;;;5115999;28;20099;-52
2020/12/30 09:07:33;;;;;;;8.00;5.95;;;9.30;81.60;;;;;;5116067;28;20483;-47
2020/12/30 09:10:08;;;;;;;9.85;6.10;;;9.30;81.60;;;;;;5113837;28;20047;-46
2020/12/30 09:12:34;;;;;;;9.80;6.30;;;9.30;81.60;;;;;;5095627;28;20072;-44
2020/12/30 09:15:00;;;;;;;8.95;5.95;;;9.30;81.60;;;;;;5095659;28;20124;-42
2020/12/30 09:17:26;;;;;;;8.60;5.90;;;9.30;81.60;;;;;;5095588;28;20048;-43
2020/12/30 09:20:10;;;;;;;7.68;5.68;;;9.30;81.60;;;;;;5095384;28;20051;-42
2020/12/30 09:22:36;;;;;;;7.63;5.38;;;9.30;81.70;;;;;;5114737;28;20067;-41
2020/12/30 09:25:03;;;;;;;7.45;5.38;;;9.30;81.60;;;;;;5115060;28;20090;-42
2020/12/30 09:27:35;;;;;;;7.88;5.22;;;9.30;81.60;;;;;;5115384;28;20075;-42
2020/12/30 09:30:15;;;;;;;5.70;4.85;;;9.30;81.60;;;;;;5115328;28;20043;-45
2020/12/30 09:32:42;;;;;;;7.65;5.40;;;9.40;81.70;;;;;;5113455;28;20039;-44
2020/12/30 09:35:10;;;;;;;6.97;4.80;;;9.30;81.60;;;;;;5095225;28;20052;-45
2020/12/30 09:37:37;;;;;;;9.23;5.50;;;9.30;81.60;;;;;;5095082;28;20048;-38
2020/12/30 09:40:06;;;;;;;7.15;5.35;;;9.30;81.60;;;;;;5095136;28;20408;-45
2020/12/30 09:42:32;;;;;;;6.85;4.65;;;9.30;81.60;;;;;;5095727;28;20080;-43
2020/12/30 09:44:58;;;;;;;6.53;4.97;;;9.30;81.60;;;;;;5094729;28;20048;-46
2020/12/30 09:47:24;;;;;;;6.28;4.85;;;9.30;81.60;;;;;;5097261;28;20057;-46
2020/12/30 09:49:49;;;;;;;8.25;5.25;;;9.40;81.60;;;;;;5111540;28;20043;-44
2020/12/30 09:52:15;;;;;;;6.68;4.78;;;9.30;81.60;;;;;;5105990;28;20057;-44
2020/12/30 09:54:41;;;;;;;7.28;5.13;;;9.40;81.70;;;;;;5114909;28;20047;-40
2020/12/30 09:57:06;;;;;;;8.43;5.40;;;9.40;81.60;;;;;;5101124;28;20079;-41
2020/12/30 09:59:32;;;;;;;6.80;4.80;;;9.40;81.60;;;;;;5113308;28;20053;-40
2020/12/30 10:01:57;;;;;;;7.05;5.05;;;9.40;81.60;;;;;;5115044;28;20083;-40
2020/12/30 10:04:23;;;;;;;6.00;4.65;;;9.40;81.60;;;;;;5114826;28;20044;-41
2020/12/30 10:06:49;;;;;;;8.27;4.82;;;9.40;81.60;;;;;;5114957;28;20043;-42
2020/12/30 10:09:15;;;;;;;7.00;4.85;;;9.40;81.60;;;;;;5115207;28;20044;-38
2020/12/30 10:11:41;;;;;;;6.90;4.78;;;9.40;81.60;;;;;;5114854;28;20075;-42
2020/12/30 10:14:07;;;;;;;7.40;4.38;;;9.40;81.60;;;;;;5114766;27;20069;-40
2020/12/30 10:16:33;;;;;;;7.97;5.47;;;9.40;81.60;;;;;;5114570;28;20051;-40
2020/12/30 10:18:59;;;;;;;7.47;4.80;;;9.40;81.60;;;;;;5114751;28;20056;-43
2020/12/30 10:21:29;;;;;;;7.05;4.72;;;9.40;81.60;;;;;;5114833;28;20147;-45
2020/12/30 10:23:55;;;;;;;7.57;5.10;;;9.40;81.60;;;;;;5114393;28;20506;-43
2020/12/30 10:26:21;;;;;;;6.38;4.68;;;9.40;81.70;;;;;;5114738;28;20077;-46
2020/12/30 10:28:47;;;;;;;7.13;4.50;;;9.40;81.60;;;;;;5114409;28;20462;-43
2020/12/30 10:31:13;;;;;;;5.40;4.05;;;9.40;81.60;;;;;;5114243;28;20044;-44
2020/12/30 10:33:38;;;;;;;6.25;4.78;;;9.40;81.60;;;;;;5114618;28;20139;-43
2020/12/30 10:36:10;;;;;;;6.47;4.78;;;9.40;81.60;;;;;;5114555;28;20043;-46
2020/12/30 10:38:36;;;;;;;6.93;4.88;;;9.40;81.60;;;;;;5114386;28;20047;-45
2020/12/30 10:41:02;;;;;;;7.20;4.53;;;9.40;81.60;;;;;;5114334;28;20039;-44
2020/12/30 10:43:28;;;;;;;7.35;5.07;;;9.40;81.60;;;;;;5114016;28;20441;-43
2020/12/30 10:45:53;;;;;;;5.15;4.35;;;9.40;81.50;;;;;;5113969;28;20050;-45
2020/12/30 10:48:19;;;;;;;5.60;3.95;;;9.40;81.60;;;;;;5114343;28;20043;-43
2020/12/30 10:50:45;;;;;;;5.70;4.43;;;9.40;81.60;;;;;;5114161;28;20056;-45
2020/12/30 10:53:10;;;;;;;6.43;4.60;;;9.40;81.50;;;;;;5114049;28;20044;-43
2020/12/30 10:55:36;;;;;;;6.25;4.55;;;9.40;81.50;;;;;;5113885;28;20048;-44
2020/12/30 10:58:02;;;;;;;5.65;4.10;;;9.40;81.50;;;;;;5113694;28;20058;-45
2020/12/30 11:00:28;;;;;;;6.22;4.50;;;9.40;81.50;;;;;;5114005;28;20097;-45
2020/12/30 11:02:54;;;;;;;5.57;4.07;;;9.40;81.50;;;;;;5114005;28;20067;-43
2020/12/30 11:05:19;;;;;;;6.05;4.28;;;9.40;81.50;;;;;;5113124;28;20100;-45
2020/12/30 11:07:45;;;;;;;5.75;4.30;;;9.40;81.50;;;;;;5113885;28;20071;-48
2020/12/30 11:10:12;;;;;;;5.07;3.75;;;9.50;81.60;;;;;;5113853;28;20499;-43
2020/12/30 11:12:38;;;;;;;5.53;3.90;;;9.50;81.60;;;;;;5113852;28;20047;-47
2020/12/30 11:15:07;;;;;;;5.50;4.03;;;9.40;81.50;;;;;;5113184;28;20050;-44
2020/12/30 11:17:33;;;;;;;6.15;3.90;;;9.50;81.60;;;;;;5113635;28;20423;-46
2020/12/30 11:20:00;;;;;;;5.18;4.03;;;9.40;81.60;;;;;;5113619;28;20048;-46
2020/12/30 11:22:26;;;;;;;5.30;3.97;;;9.40;81.50;;;;;;5113378;28;20416;-46
2020/12/30 11:24:52;;;;;;;6.45;4.32;;;9.50;81.60;;;;;;5113406;28;20403;-44
2020/12/30 11:27:18;;;;;;;4.82;3.80;;;9.40;81.50;;;;;;5113514;28;20130;-46
2020/12/30 11:29:44;;;;;;;6.13;3.95;;;9.50;81.50;;;;;;5113137;28;20139;-44
2020/12/30 11:32:10;;;;;;;5.53;4.13;;;9.50;81.50;;;;;;5113498;28;20381;-43
2020/12/30 11:34:35;;;;;;;5.38;4.00;;;9.50;81.60;;;;;;5113549;28;20466;-40
2020/12/30 11:37:01;;;;;;;4.05;3.63;;;9.50;81.60;;;;;;5113372;28;20051;-45
2020/12/30 11:39:27;;;;;;;5.45;4.00;;;9.50;81.60;;;;;;5113538;28;20055;-42
2020/12/30 11:41:53;;;;;;;4.15;3.28;;;9.50;81.60;;;;;;5113468;28;20390;-41
2020/12/30 11:44:20;;;;;;;5.47;3.78;;;9.50;81.60;;;;;;5112871;28;20048;-43
2020/12/30 11:46:53;;;;;;;4.80;3.22;;;9.50;81.50;;;;;;5113098;28;20051;-42
2020/12/30 11:49:19;;;;;;;5.45;3.90;;;9.50;81.60;;;;;;5113147;28;20487;-40
2020/12/30 11:51:45;;;;;;;5.13;3.47;;;9.50;81.50;;;;;;5113073;28;20080;-45
2020/12/30 11:54:11;;;;;;;6.82;3.72;;;9.50;81.50;;;;;;5112650;28;20075;-43
2020/12/30 11:56:36;;;;;;;5.43;3.97;;;9.50;81.50;;;;;;5113029;28;20032;-40
2020/12/30 11:59:02;;;;;;;5.82;4.03;;;9.50;81.50;;;;;;5112563;28;20502;-37
2020/12/30 12:01:34;;;;;;;5.40;3.50;;;9.50;81.50;;;;;;5112513;28;20064;-38
2020/12/30 12:04:02;;;;;;;4.53;3.38;;;9.50;81.50;;;;;;5110103;28;20405;-41
2020/12/30 12:06:28;;;;;;;4.25;3.42;;;9.50;81.50;;;;;;5112977;28;20043;-40
2020/12/30 12:08:54;;;;;;;5.13;3.42;;;9.50;81.50;;;;;;5112748;28;20070;-40
2020/12/30 12:11:20;;;;;;;4.50;3.40;;;9.50;81.50;;;;;;5109924;28;20039;-42
2020/12/30 12:13:46;;;;;;;5.10;3.65;;;9.50;81.50;;;;;;5112605;28;20073;-42
2020/12/30 12:16:12;;;;;;;5.28;3.20;;;9.50;81.50;;;;;;5113014;28;20424;-44
2020/12/30 12:18:38;;;;;;;4.45;3.63;;;9.50;81.50;;;;;;5117099;28;20096;-43
2020/12/30 12:21:05;;;;;;;4.57;3.72;;;9.50;81.50;;;;;;5116644;28;20051;-42
2020/12/30 12:23:31;;;;;;;5.43;3.65;;;9.50;81.50;;;;;;5116433;28;20055;-44
2020/12/30 12:25:57;;;;;;;5.20;3.72;;;9.50;81.50;;;;;;5116665;28;20040;-44
2020/12/30 12:28:45;;;;;;;4.22;3.28;;;9.50;81.50;;;;;;5117372;27;20372;-44
2020/12/30 12:31:17;;;;;;;4.57;3.22;;;9.50;81.40;;;;;;5116628;28;20059;-46
2020/12/30 12:33:43;;;;;;;4.05;3.15;;;9.50;81.50;;;;;;5116781;28;20055;-38
2020/12/30 12:36:13;;;;;;;4.80;3.28;;;9.50;81.40;;;;;;5116652;28;20505;-41
2020/12/30 12:38:39;;;;;;;3.13;2.78;;;9.50;81.40;;;;;;5116739;28;20047;-46
2020/12/30 12:41:05;;;;;;;4.43;3.13;;;9.50;81.50;;;;;;5116879;27;20059;-42
2020/12/30 12:43:31;;;;;;;3.90;2.88;;;9.50;81.40;;;;;;5116336;28;20048;-43
2020/12/30 12:45:57;;;;;;;4.68;3.50;;;9.50;81.40;;;;;;5115980;28;20043;-46
2020/12/30 12:48:23;;;;;;;3.97;3.00;;;9.50;81.40;;;;;;5116705;28;20092;-44
2020/12/30 12:50:48;;;;;;;4.00;3.25;;;9.50;81.40;;;;;;5116673;28;20051;-44
2020/12/30 12:53:14;;;;;;;4.35;3.38;;;9.50;82.00;;;;;;5116313;28;20050;-43
2020/12/30 12:55:40;;;;;;;4.45;3.35;;;9.60;81.50;;;;;;5116215;28;20054;-40
2020/12/30 12:58:05;;;;;;;4.35;2.95;;;9.50;81.40;;;;;;5116055;28;20403;-40
2020/12/30 13:00:31;;;;;;;3.70;2.80;;;9.60;81.40;;;;;;5116071;28;20495;-40